This is the latest recevied weather packets stored in our database for station/object AA7VG. If no packets are shown the sender has not sent any weather packets the latest 1 day(s).
| Time | Temp. | Humidity | Pressure | Rain* | Wind** | Luminosity | Snow |
|---|---|---|---|---|---|---|---|
| 1778061850 | -2.78° C | 75% | 1018.2 hPa | 0 mm | - | - | - |
| 1778061548 | -2.22° C | 75% | 1018.3 hPa | 0 mm | - | - | - |
| 1778060641 | -2.22° C | 76% | 1018.5 hPa | 0 mm | - | - | - |
| 1778060338 | -2.22° C | 76% | 1018.4 hPa | 0 mm | - | - | - |
| 1778060036 | -2.22° C | 77% | 1018.4 hPa | 0 mm | - | - | - |
| 1778059127 | -2.78° C | 78% | 1018.5 hPa | 0 mm | - | - | - |
| 1778058522 | -2.22° C | 75% | 1018.5 hPa | 0 mm | - | - | - |
| 1778058220 | -2.22° C | 75% | 1018.5 hPa | 0 mm | - | - | - |
| 1778057006 | -1.67° C | 74% | 1018.4 hPa | 0 mm | - | - | - |
| 1778056703 | -1.67° C | 75% | 1018.5 hPa | 0 mm | - | - | - |
| 1778056098 | -1.67° C | 75% | 1018.4 hPa | 0 mm | - | - | - |
| 1778055794 | -1.67° C | 74% | 1018.5 hPa | 0 mm | - | - | - |
| 1778054582 | -1.67° C | 75% | 1018.5 hPa | 0 mm | - | - | - |
| 1778054280 | -1.67° C | 74% | 1018.4 hPa | 0 mm | - | - | - |
| 1778053674 | -1.11° C | 72% | 1018.6 hPa | 0 mm | - | - | - |
| 1778053069 | -1.11° C | 73% | 1018.4 hPa | 0 mm | - | - | - |
| 1778052766 | -0.56° C | 72% | 1018.4 hPa | 0 mm | - | - | - |
| 1778052463 | -0.56° C | 72% | 1018.4 hPa | 0 mm | - | - | - |
| 1778052161 | 0° C | 72% | 1018.4 hPa | 0 mm | - | - | - |
| 1778051556 | 0° C | 68% | 1018.5 hPa | 0 mm | - | - | - |
| 1778050344 | 0.56° C | 66% | 1018.4 hPa | 0 mm | - | - | - |
| 1778050041 | 0.56° C | 67% | 1018.4 hPa | 0 mm | - | - | - |
| 1778047619 | 1.67° C | 57% | 1018.3 hPa | 0 mm | - | - | - |
| 1778047315 | 1.11° C | 58% | 1018.4 hPa | 0 mm | - | - | - |
| 1778046709 | 1.11° C | 59% | 1018.6 hPa | 0 mm | - | - | - |
* Rain latest hour (hover to see other rain measurements)
** Current wind speed in m/s (hover to see current wind gust speed)